Time;durP1;ratioP1;P1;durP2;ratioP2;P2;SDS_P1;SDS_P2;PMS_P1;PMS_P2;Temp;Humidity;BMP_temperature;BMP_pressure;BME280_temperature;BME280_humidity;BME280_pressure;Samples;Min_cycle;Max_cycle;Signal;HPM_P1;HPM_P2
2022/11/14 02:25:18;;;;;;;100.72;13.73;;;;;;;8.20;59.63;100844.97;4674926;27;20062;-96
2022/11/14 04:09:46;;;;;;;;;;;;;;;;;;;;;
2022/11/14 04:12:21;;;;;;;67.40;12.90;;;;;;;7.67;59.60;100802.84;4382483;32;35417;-96
2022/11/14 04:20:47;;;;;;;50.38;12.40;;;;;;;8.06;59.62;100810.47;5094829;26;20075;-96
2022/11/14 04:24:03;;;;;;;;;;;;;;;;;;;;;
2022/11/14 04:27:06;;;;;;;83.60;12.68;;;;;;;7.92;59.62;100800.16;4409022;32;35691;-96
2022/11/14 04:29:46;;;;;;;27.20;11.18;;;;;;;7.88;59.62;100803.63;4413953;32;20079;-96
2022/11/14 04:32:20;;;;;;;41.37;12.50;;;;;;;7.82;59.61;100793.31;4400095;32;20129;-96
2022/11/14 04:38:38;;;;;;;34.90;11.43;;;;;;;7.88;59.62;100788.94;4372222;32;20599;-96
2022/11/14 04:41:03;;;;;;;49.50;12.18;;;;;;;8.06;59.62;100790.59;4410728;32;20141;-96
2022/11/14 04:43:29;;;;;;;29.17;11.63;;;;;;;7.78;59.61;100786.37;4397954;32;20160;-96
2022/11/14 04:46:47;;;;;;;;;;;;;;;;;;;;;
2022/11/14 04:49:15;;;;;;;41.47;12.00;;;;;;;7.83;59.61;100774.28;4377109;32;35700;-96
2022/11/14 04:52:01;;;;;;;29.95;11.73;;;;;;;7.82;59.61;100769.97;4396466;32;20098;-95
2022/11/14 04:55:27;;;;;;;40.95;11.50;;;;;;;7.69;59.61;100767.41;4403670;32;20898;-96
2022/11/14 04:59:00;;;;;;;;;;;;;;;;;;;;;
2022/11/14 05:02:46;;;;;;;;;;;;;;;;;;;;;
2022/11/14 05:11:51;;;;;;;;;;;;;;;;;;;;;
2022/11/14 05:14:42;;;;;;;47.00;11.32;;;;;;;7.45;59.59;100753.69;4398947;32;20085;-95
2022/11/14 05:32:11;;;;;;;39.17;12.00;;;;;;;7.41;59.59;100764.94;4396799;32;20086;-96
2022/11/14 05:35:25;;;;;;;53.28;12.63;;;;;;;7.52;59.59;100764.00;4427824;27;20109;-96
2022/11/14 05:38:27;;;;;;;76.85;12.45;;;;;;;7.41;59.59;100763.19;4401756;32;20078;-96
2022/11/14 05:40:52;;;;;;;65.18;14.90;;;;;;;7.44;59.59;100763.19;4407233;32;20712;-96
2022/11/14 05:43:17;;;;;;;35.95;11.80;;;;;;;7.35;59.58;100764.09;4382056;32;20126;-96
2022/11/14 05:45:45;;;;;;;49.10;12.52;;;;;;;7.42;59.59;100764.94;4368265;32;20201;-96
2022/11/14 05:48:10;;;;;;;81.87;12.43;;;;;;;7.42;59.59;100764.94;4380732;32;20814;-96
2022/11/14 05:50:40;;;;;;;40.53;12.55;;;;;;;7.51;59.59;100764.88;4374450;32;20101;-96
2022/11/14 05:53:06;;;;;;;89.13;13.90;;;;;;;7.47;59.58;100764.91;4370003;32;21402;-96
2022/11/14 05:55:32;;;;;;;120.60;14.98;;;;;;;7.63;59.61;100769.19;4374394;32;20071;-96
2022/11/14 05:57:58;;;;;;;75.95;14.63;;;;;;;7.44;59.59;100773.56;4383779;32;20166;-96
2022/11/14 06:00:23;;;;;;;30.55;12.95;;;;;;;7.58;59.60;100765.75;4504829;27;20151;-96
2022/11/14 06:02:53;;;;;;;44.65;12.45;;;;;;;7.56;59.60;100763.13;4386232;32;20110;-95
2022/11/14 06:05:21;;;;;;;92.12;14.32;;;;;;;7.77;59.62;100769.09;4385043;32;20177;-95
2022/11/14 06:07:47;;;;;;;56.67;13.45;;;;;;;7.54;59.59;100764.88;4381549;32;20087;-94
2022/11/14 06:10:18;;;;;;;66.12;13.93;;;;;;;7.66;59.60;100780.38;4404673;32;20118;-95
2022/11/14 06:12:44;;;;;;;53.38;12.60;;;;;;;7.62;59.61;100778.69;4396542;32;20117;-95
2022/11/14 06:15:09;;;;;;;69.07;13.90;;;;;;;7.73;59.60;100776.03;4385137;32;20141;-94
2022/11/14 06:17:42;;;;;;;29.27;12.75;;;;;;;7.78;59.61;100784.66;4383525;32;20387;-96
2022/11/14 06:20:08;;;;;;;54.20;13.45;;;;;;;7.82;59.61;100786.37;4393424;32;20078;-95
2022/11/14 06:22:34;;;;;;;40.12;13.23;;;;;;;7.72;59.61;100789.87;4381115;32;20137;-94
2022/11/14 06:25:03;;;;;;;65.82;13.85;;;;;;;7.68;59.60;100798.53;4382863;32;20426;-96
2022/11/14 06:27:31;;;;;;;69.50;13.77;;;;;;;7.72;59.61;100791.59;4383241;32;20135;-96
2022/11/14 06:30:01;;;;;;;67.32;16.85;;;;;;;7.66;59.60;100782.97;4382626;32;20983;-95
2022/11/14 06:32:29;;;;;;;147.40;16.80;;;;;;;7.94;59.62;100782.84;4395916;32;20110;-96
2022/11/14 06:35:02;;;;;;;141.77;18.08;;;;;;;7.77;59.61;100788.09;4394419;32;20124;-95
2022/11/14 06:37:30;;;;;;;82.47;16.52;;;;;;;7.75;59.61;100784.66;4404851;32;20074;-96
2022/11/14 06:40:01;;;;;;;99.85;17.90;;;;;;;7.78;59.61;100792.41;4385434;32;20458;-95
2022/11/14 06:42:26;;;;;;;36.85;16.12;;;;;;;8.02;59.62;100796.63;4385342;32;20074;-95
2022/11/14 06:45:04;;;;;;;53.63;15.10;;;;;;;8.20;59.63;100791.38;4372245;32;20261;-95
2022/11/14 06:47:32;;;;;;;108.90;18.48;;;;;;;8.46;59.65;100792.97;4392008;32;20063;-95
2022/11/14 06:50:02;;;;;;;50.38;16.35;;;;;;;8.48;59.65;100786.88;4397870;32;20141;-96
2022/11/14 06:52:43;;;;;;;;;;;;;;;;;;;;;
2022/11/14 06:55:18;;;;;;;85.28;17.12;;;;;;;8.21;59.63;100792.22;4387801;32;35023;-96
2022/11/14 06:58:41;;;;;;;;;;;;;;;;;;;;;
2022/11/14 07:01:20;;;;;;;62.47;17.10;;;;;;;8.18;59.63;100792.25;4389706;32;20090;-96
2022/11/14 07:04:06;;;;;;;;;;;;;;;;;;;;;
2022/11/14 07:10:12;;;;;;;52.00;14.25;;;;;;;8.56;59.65;100786.84;4372825;32;20063;-96
2022/11/14 07:16:09;;;;;;;;;;;;;;;;;;;;;
2022/11/14 07:22:29;;;;;;;45.00;16.73;;;;;;;8.97;59.67;100796.03;4365597;32;20091;-96
2022/11/14 07:29:47;;;;;;;;;;;;;;;;;;;;;
2022/11/14 07:59:35;;;;;;;35.53;18.27;;;;;;;9.76;59.71;100775.28;4233801;33;20852;-93
2022/11/14 08:02:00;;;;;;;39.35;19.23;;;;;;;9.84;59.72;100772.56;4298773;33;20115;-93
2022/11/14 08:04:26;;;;;;;39.45;19.30;;;;;;;9.97;59.73;100771.56;4342716;32;20141;-92
2022/11/14 08:06:51;;;;;;;35.35;18.75;;;;;;;10.04;59.73;100775.78;4362882;32;20449;-92
2022/11/14 08:09:17;;;;;;;41.17;19.92;;;;;;;10.09;59.74;100771.38;4350407;32;20168;-93
2022/11/14 08:11:48;;;;;;;40.83;19.05;;;;;;;10.21;59.74;100766.94;4339465;32;20446;-92
2022/11/14 08:14:14;;;;;;;36.85;19.48;;;;;;;10.27;59.75;100766.84;4347640;32;20095;-92
2022/11/14 08:16:39;;;;;;;38.47;19.15;;;;;;;10.34;59.75;100769.31;4337886;32;20460;-93
2022/11/14 08:19:05;;;;;;;35.35;17.48;;;;;;;10.24;59.74;100769.47;4350203;32;20242;-92
2022/11/14 08:21:30;;;;;;;38.67;18.00;;;;;;;10.39;59.75;100761.44;4355771;32;20094;-93
2022/11/14 08:23:56;;;;;;;36.95;18.90;;;;;;;10.45;59.75;100761.34;4337641;32;20445;-93
2022/11/14 08:26:21;;;;;;;34.85;19.75;;;;;;;10.51;59.76;100761.25;4347698;32;20170;-93
2022/11/14 08:28:47;;;;;;;35.30;18.60;;;;;;;10.47;59.75;100763.94;4350212;32;20137;-92
2022/11/14 08:31:15;;;;;;;37.40;18.52;;;;;;;10.54;59.75;100761.22;4338031;32;20102;-92
2022/11/14 08:33:40;;;;;;;35.22;19.20;;;;;;;10.72;59.77;100749.66;4333151;32;20094;-93
2022/11/14 08:36:06;;;;;;;39.35;20.17;;;;;;;10.83;59.78;100744.25;4338042;32;20575;-93
2022/11/14 08:38:32;;;;;;;34.03;18.67;;;;;;;10.96;59.79;100750.97;4350111;32;20106;-93
2022/11/14 08:41:00;;;;;;;38.97;18.52;;;;;;;10.91;59.77;100740.62;4337837;32;20109;-93
2022/11/14 08:43:25;;;;;;;36.17;19.15;;;;;;;11.13;59.79;100735.91;4323147;33;20157;-92
2022/11/14 08:45:50;;;;;;;38.90;18.40;;;;;;;11.23;59.80;100732.22;4345312;32;20468;-92
2022/11/14 08:48:16;;;;;;;31.77;17.50;;;;;;;11.42;59.80;100730.12;4338442;32;20520;-93
2022/11/14 08:50:41;;;;;;;32.22;17.23;;;;;;;11.30;59.81;100726.00;4350225;32;20154;-92
2022/11/14 08:53:07;;;;;;;28.00;15.20;;;;;;;11.53;59.82;100728.16;4349605;32;20099;-92
2022/11/14 08:55:32;;;;;;;33.28;16.92;;;;;;;11.65;59.82;100727.91;4322910;33;20150;-92
2022/11/14 08:57:58;;;;;;;29.77;16.42;;;;;;;11.62;59.82;100724.50;4365579;32;20181;-92
2022/11/14 09:00:23;;;;;;;26.23;14.23;;;;;;;11.79;59.83;100718.94;4364834;32;20157;-92
2022/11/14 09:02:49;;;;;;;26.33;14.55;;;;;;;11.87;59.83;100719.66;4352408;32;20179;-92
2022/11/14 09:05:14;;;;;;;30.55;15.20;;;;;;;11.92;59.84;100725.63;4339819;32;20143;-92
2022/11/14 09:07:40;;;;;;;30.17;14.98;;;;;;;11.83;59.83;100726.69;4352286;32;20106;-92
2022/11/14 09:10:06;;;;;;;24.92;13.85;;;;;;;11.90;59.83;100727.41;4352470;32;20215;-92
2022/11/14 09:12:31;;;;;;;27.10;14.93;;;;;;;11.97;59.83;100729.84;4349589;32;20113;-91
2022/11/14 09:14:57;;;;;;;28.20;16.17;;;;;;;11.96;59.83;100735.97;4360397;32;20141;-91
2022/11/14 09:17:22;;;;;;;25.83;14.07;;;;;;;11.97;59.83;100729.00;4352085;32;20140;-90
2022/11/14 09:19:47;;;;;;;30.27;15.40;;;;;;;12.03;59.84;100730.59;4339529;32;20170;-91
2022/11/14 09:22:13;;;;;;;29.98;15.65;;;;;;;12.14;59.85;100736.44;4352356;32;20094;-91
2022/11/14 09:24:38;;;;;;;27.30;16.00;;;;;;;12.09;59.84;100730.50;4339462;32;20295;-91
2022/11/14 09:27:04;;;;;;;26.50;15.80;;;;;;;12.24;59.85;100730.12;4351999;32;20182;-92
2022/11/14 09:29:29;;;;;;;33.53;16.45;;;;;;;12.40;59.86;100723.66;4338886;32;23739;-91
2022/11/14 09:31:56;;;;;;;23.87;14.82;;;;;;;12.57;59.86;100723.25;4352049;32;20146;-91
2022/11/14 09:34:21;;;;;;;30.35;15.27;;;;;;;12.47;59.86;100719.13;4376664;32;20173;-91
2022/11/14 09:36:46;;;;;;;30.27;16.08;;;;;;;12.46;59.86;100720.03;4349384;32;20114;-91
2022/11/14 09:39:12;;;;;;;31.10;17.10;;;;;;;12.35;59.85;100712.47;4360979;32;21698;-90
2022/11/14 09:41:58;;;;;;;28.83;15.38;;;;;;;12.52;59.87;100698.97;4364246;32;20142;-91
2022/11/14 09:44:56;;;;;;;28.77;14.48;;;;;;;12.60;59.87;100705.75;4364609;32;20119;-91
2022/11/14 09:47:23;;;;;;;29.67;15.73;;;;;;;12.55;59.87;100697.19;4358639;32;20403;-91
2022/11/14 09:49:50;;;;;;;29.87;16.10;;;;;;;12.64;59.87;100695.22;4362752;32;20082;-92
2022/11/14 09:52:35;;;;;;;30.40;15.52;;;;;;;12.76;59.88;100698.34;4364500;32;20094;-91
2022/11/14 09:55:12;;;;;;;29.08;14.82;;;;;;;12.75;59.88;100691.41;4361484;32;20162;-91
2022/11/14 09:57:38;;;;;;;32.80;15.15;;;;;;;12.91;59.89;100695.34;4358071;32;20165;-91
2022/11/14 10:00:13;;;;;;;31.27;16.50;;;;;;;12.97;59.88;100688.25;4364094;32;20073;-91
2022/11/14 10:02:43;;;;;;;25.35;13.88;;;;;;;13.17;59.90;100685.94;4357617;32;20075;-91
2022/11/14 10:05:11;;;;;;;28.80;15.90;;;;;;;13.17;59.90;100684.22;4364010;32;20103;-91
2022/11/14 10:08:05;;;;;;;33.40;16.45;;;;;;;13.00;59.89;100686.41;4376770;32;20463;-91
2022/11/14 10:10:47;;;;;;;34.10;15.13;;;;;;;13.09;59.89;100682.69;4366578;32;20161;-91
2022/11/14 10:13:21;;;;;;;28.42;15.25;;;;;;;13.14;59.90;100678.19;4362255;32;20128;-91
2022/11/14 10:16:17;;;;;;;29.98;15.95;;;;;;;13.27;59.92;100674.37;4368749;32;20156;-91
2022/11/14 10:18:49;;;;;;;33.25;16.20;;;;;;;13.41;59.91;100672.22;4380999;32;20170;-91
2022/11/14 10:21:29;;;;;;;35.30;17.15;;;;;;;13.26;59.90;100663.97;4391144;32;20087;-91
2022/11/14 10:24:04;;;;;;;29.08;15.43;;;;;;;13.41;59.91;100658.28;4368556;32;20142;-91
2022/11/14 10:26:30;;;;;;;29.33;16.20;;;;;;;13.35;59.91;100661.94;4359385;32;20114;-90
2022/11/14 10:29:01;;;;;;;29.55;15.45;;;;;;;13.42;59.92;100657.37;4366169;32;20137;-91
2022/11/14 10:31:46;;;;;;;31.77;15.98;;;;;;;13.48;59.91;100658.03;4368495;32;20103;-91
2022/11/14 10:34:31;;;;;;;29.12;14.90;;;;;;;13.49;59.92;100649.31;4382231;32;20106;-92
2022/11/14 10:37:21;;;;;;;27.48;15.07;;;;;;;13.67;59.93;100642.66;4381009;32;20102;-91
2022/11/14 10:39:48;;;;;;;;;;;;;;;13.73;59.94;100647.72;4382458;32;20129;-92
2022/11/14 10:42:21;;;;;;;24.27;13.68;;;;;;;13.74;59.93;100638.13;4353603;32;20010;-92
2022/11/14 10:45:00;;;;;;;29.17;15.10;;;;;;;13.78;59.94;100637.13;4353442;32;20095;-91
2022/11/14 10:47:34;;;;;;;26.95;14.93;;;;;;;13.83;59.94;100637.81;4366411;32;20398;-91
2022/11/14 10:50:03;;;;;;;29.42;14.80;;;;;;;13.79;59.93;100633.59;4368416;32;20166;-91
2022/11/14 10:52:37;;;;;;;30.40;15.15;;;;;;;13.76;59.93;100631.94;4362262;32;20124;-91
2022/11/14 10:55:06;;;;;;;26.37;13.27;;;;;;;13.86;59.94;100634.25;4340529;32;20074;-92
2022/11/14 10:57:31;;;;;;;27.67;14.25;;;;;;;13.85;59.94;100624.69;4368350;32;20106;-92
2022/11/14 10:59:56;;;;;;;29.33;15.35;;;;;;;13.93;59.94;100622.69;4367185;32;20098;-92
2022/11/14 11:02:22;;;;;;;29.98;14.07;;;;;;;14.00;59.94;100621.59;4380587;32;20206;-91
2022/11/14 11:04:47;;;;;;;26.62;14.70;;;;;;;13.97;59.95;100619.94;4380468;32;20144;-92
2022/11/14 11:13:12;;;;;;;22.70;13.50;;;;;;;14.05;59.95;100612.69;4376306;32;20116;-91
2022/11/14 11:15:41;;;;;;;25.73;13.55;;;;;;;14.05;59.95;100603.97;4378124;32;20129;-91
2022/11/14 11:18:27;;;;;;;26.23;15.00;;;;;;;13.96;59.95;100601.62;4378042;32;20622;-91
2022/11/14 11:21:06;;;;;;;27.87;15.80;;;;;;;14.09;59.95;100600.34;4365864;32;20122;-91
2022/11/14 11:23:32;;;;;;;25.88;14.02;;;;;;;14.07;59.95;100594.31;4386418;32;20095;-91
2022/11/14 11:26:04;;;;;;;24.45;14.38;;;;;;;14.20;59.96;100586.91;4397461;32;20117;-91
2022/11/14 11:28:31;;;;;;;23.33;13.93;;;;;;;14.29;59.97;100586.59;4362739;32;20100;-91
2022/11/14 11:30:57;;;;;;;31.58;16.85;;;;;;;14.38;59.96;100588.88;4376747;32;20098;-91
2022/11/14 11:33:24;;;;;;;32.78;16.75;;;;;;;14.26;59.96;100579.69;4389862;32;20117;-90
2022/11/14 11:35:51;;;;;;;29.35;16.70;;;;;;;14.27;59.96;100577.94;4375436;32;20110;-92
2022/11/14 11:38:16;;;;;;;29.42;14.85;;;;;;;14.51;59.97;100579.75;4374884;32;20107;-91
2022/11/14 11:40:42;;;;;;;27.05;14.93;;;;;;;14.52;59.97;100573.59;4375036;32;20121;-91
2022/11/14 11:43:15;;;;;;;28.42;16.20;;;;;;;14.62;59.97;100576.72;4374870;32;20146;-91
2022/11/14 11:45:43;;;;;;;26.75;15.32;;;;;;;14.56;59.98;100563.84;4375532;32;20130;-90
2022/11/14 11:48:38;;;;;;;23.83;14.27;;;;;;;14.64;59.98;100569.66;4377414;32;20412;-91
2022/11/14 11:51:03;;;;;;;28.65;15.15;;;;;;;14.68;59.98;100572.16;4377907;32;20110;-90
2022/11/14 11:53:40;;;;;;;24.12;13.32;;;;;;;14.71;59.98;100565.94;4376946;32;20095;-92
2022/11/14 11:56:09;;;;;;;25.27;14.90;;;;;;;14.92;60.00;100561.69;4362638;32;20103;-91
2022/11/14 11:58:42;;;;;;;28.08;15.45;;;;;;;14.82;59.99;100565.53;4377251;32;20134;-92
2022/11/14 12:01:11;;;;;;;26.12;14.55;;;;;;;14.76;59.99;100558.75;4362646;32;20130;-91
2022/11/14 12:03:36;;;;;;;29.80;16.37;;;;;;;14.72;60.00;100550.16;4377311;32;20803;-94
2022/11/14 12:06:16;;;;;;;27.92;16.17;;;;;;;14.70;59.98;100551.97;4377467;32;20468;-92
2022/11/14 12:08:45;;;;;;;29.42;13.85;;;;;;;14.65;59.99;100545.16;4352861;32;20322;-91
2022/11/14 12:11:15;;;;;;;28.38;15.52;;;;;;;14.82;59.99;100545.41;4378047;32;20505;-91
2022/11/14 12:13:53;;;;;;;30.10;15.80;;;;;;;14.63;59.97;100533.91;4374569;32;20181;-93
2022/11/14 12:16:24;;;;;;;26.37;14.15;;;;;;;14.79;60.00;100529.81;4375403;32;20182;-92
2022/11/14 12:19:08;;;;;;;34.55;15.02;;;;;;;14.82;59.99;100527.06;4376987;32;20114;-92
2022/11/14 12:22:09;;;;;;;27.87;14.87;;;;;;;14.86;59.99;100518.19;4389768;32;20107;-93
2022/11/14 12:24:37;;;;;;;26.98;15.38;;;;;;;14.91;60.00;100516.28;4377109;32;20067;-91
2022/11/14 12:27:14;;;;;;;27.10;15.70;;;;;;;14.81;59.99;100517.50;4389846;32;20156;-91
2022/11/14 12:29:54;;;;;;;26.92;15.63;;;;;;;14.79;59.99;100506.22;4374875;32;20539;-92
2022/11/14 12:32:31;;;;;;;32.13;16.30;;;;;;;14.85;59.99;100511.22;4347401;32;20472;-92
2022/11/14 12:34:57;;;;;;;30.65;14.90;;;;;;;14.85;59.99;100506.00;4364656;32;20475;-92
2022/11/14 12:37:30;;;;;;;28.45;14.57;;;;;;;14.91;60.00;100510.16;4364866;32;20141;-91
2022/11/14 12:40:00;;;;;;;24.80;13.52;;;;;;;15.01;60.00;100499.25;4364691;32;20106;-93
2022/11/14 12:42:26;;;;;;;;;;;;;;;14.97;60.00;100497.69;4372270;32;20106;-91
2022/11/14 12:44:51;;;;;;;23.13;12.97;;;;;;;14.97;60.00;100494.19;4388458;32;20009;-92
2022/11/14 12:47:21;;;;;;;31.15;20.75;;;;;;;15.08;60.00;100488.53;4370211;32;20200;-92
2022/11/14 12:49:46;;;;;;;28.15;19.75;;;;;;;14.92;59.99;100493.53;4364948;32;20459;-92
2022/11/14 12:52:39;;;;;;;24.33;13.60;;;;;;;14.98;60.00;100491.53;4387065;32;20099;-92
2022/11/14 12:55:25;;;;;;;20.35;11.95;;;;;;;15.07;60.00;100487.69;4386881;32;20090;-92
2022/11/14 12:58:06;;;;;;;21.92;11.40;;;;;;;15.23;60.01;100474.84;4373955;32;20148;-92
2022/11/14 13:00:32;;;;;;;18.23;10.82;;;;;;;15.37;60.02;100477.75;4377408;32;20753;-92
2022/11/14 13:03:12;;;;;;;18.65;10.82;;;;;;;15.35;60.02;100471.72;4375670;32;20098;-92
2022/11/14 13:05:37;;;;;;;21.02;10.70;;;;;;;15.28;60.01;100471.09;4389648;32;20058;-92
2022/11/14 13:08:15;;;;;;;16.98;10.35;;;;;;;15.31;60.02;100475.38;4392775;32;20154;-92
2022/11/14 13:10:40;;;;;;;24.05;11.15;;;;;;;15.10;60.01;100471.81;4353049;32;20173;-92
2022/11/14 13:21:44;;;;;;;20.90;9.98;;;;;;;15.21;60.01;100466.19;4366537;32;20109;-92
2022/11/14 13:22:18;;;;;;;16.62;9.63;;;;;;;15.29;60.02;100469.34;4378140;32;20141;-92
2022/11/14 13:24:58;;;;;;;17.97;9.07;;;;;;;15.22;60.01;100460.00;4362048;32;20111;-92
2022/11/14 13:27:26;;;;;;;16.65;8.45;;;;;;;15.23;60.01;100459.94;4385403;32;20121;-92
2022/11/14 13:29:52;;;;;;;29.40;11.15;;;;;;;15.20;60.02;100459.22;4387271;32;20086;-92
2022/11/14 13:32:43;;;;;;;16.45;8.98;;;;;;;15.16;60.01;100455.03;4361615;32;20122;-91
2022/11/14 13:35:36;;;;;;;12.93;7.35;;;;;;;15.18;60.02;100454.03;4378580;32;20071;-91
2022/11/14 13:38:49;;;;;;;16.87;9.02;;;;;;;14.99;60.00;100459.16;4378039;32;20090;-92
2022/11/14 13:41:40;;;;;;;15.60;8.60;;;;;;;15.10;60.01;100447.37;4376507;32;20103;-92
2022/11/14 13:44:31;;;;;;;20.17;9.93;;;;;;;15.09;60.00;100448.28;4385107;32;20132;-93
2022/11/14 13:47:25;;;;;;;25.02;12.98;;;;;;;15.12;60.02;100445.53;4375015;32;20107;-92
2022/11/14 13:50:00;;;;;;;15.75;9.52;;;;;;;15.16;60.02;100437.50;4375472;32;20146;-92
2022/11/14 13:52:28;;;;;;;17.00;8.80;;;;;;;15.02;60.00;100442.44;4377981;32;20105;-92
2022/11/14 13:54:54;;;;;;;15.00;9.02;;;;;;;15.04;60.01;100438.00;4376739;32;20115;-92
2022/11/14 13:57:29;;;;;;;17.50;9.85;;;;;;;15.01;60.00;100431.09;4376393;32;20165;-91
2022/11/14 14:00:10;;;;;;;19.65;10.55;;;;;;;14.93;60.00;100446.28;4364004;32;20153;-91
2022/11/14 14:02:36;;;;;;;16.62;10.13;;;;;;;15.10;60.02;100439.50;4388816;32;20091;-93
2022/11/14 14:05:01;;;;;;;18.15;10.02;;;;;;;15.10;60.02;100439.50;4388788;32;20396;-92
2022/11/14 14:07:40;;;;;;;17.35;9.50;;;;;;;15.07;60.00;100437.00;4377658;32;20099;-91
2022/11/14 14:10:33;;;;;;;17.83;9.55;;;;;;;14.98;60.01;100433.84;4363920;32;20285;-92
2022/11/14 14:13:22;;;;;;;18.65;9.40;;;;;;;14.95;60.00;100433.97;4372580;32;20465;-92
2022/11/14 14:15:58;;;;;;;17.65;9.40;;;;;;;14.93;60.00;100429.69;4376470;32;20102;-91
2022/11/14 14:18:47;;;;;;;18.05;9.73;;;;;;;14.63;59.98;100435.19;4364390;32;20164;-91
2022/11/14 14:21:13;;;;;;;19.27;9.27;;;;;;;14.70;60.00;100447.16;4386965;32;20173;-91
2022/11/14 14:24:03;;;;;;;18.83;10.43;;;;;;;14.72;59.99;100447.09;4388586;32;20111;-91
2022/11/14 14:26:59;;;;;;;18.02;9.20;;;;;;;14.67;59.99;100443.81;4388910;32;20196;-92
2022/11/14 14:29:32;;;;;;;20.40;10.57;;;;;;;14.61;59.98;100429.16;4388657;32;20110;-92
2022/11/14 14:32:14;;;;;;;20.75;11.07;;;;;;;14.59;59.98;100424.88;4351484;32;20098;-92
2022/11/14 14:34:43;;;;;;;22.02;13.65;;;;;;;14.49;59.98;100432.25;4376082;32;20121;-92
2022/11/14 14:37:21;;;;;;;21.92;11.05;;;;;;;14.60;59.98;100435.31;4352324;32;20094;-92
2022/11/14 14:40:04;;;;;;;20.37;11.57;;;;;;;14.38;59.97;100427.34;4376995;32;20129;-92
2022/11/14 14:42:39;;;;;;;21.58;11.18;;;;;;;14.33;59.96;100431.06;4377045;32;20095;-91
2022/11/14 14:45:13;;;;;;;19.42;10.82;;;;;;;14.38;59.97;100429.12;4394896;32;20068;-91
2022/11/14 14:47:40;;;;;;;19.67;10.35;;;;;;;14.21;59.96;100424.50;4377145;32;20133;-91
2022/11/14 14:50:16;;;;;;;26.15;13.02;;;;;;;14.10;59.96;100424.03;4353977;32;20123;-95
2022/11/14 14:52:42;;;;;;;29.08;13.73;;;;;;;14.02;59.95;100418.22;4371362;32;20516;-92
2022/11/14 14:55:17;;;;;;;23.10;13.10;;;;;;;13.87;59.94;100421.38;4364054;32;20166;-92
2022/11/14 14:57:43;;;;;;;27.30;13.88;;;;;;;13.94;59.94;100426.31;4365923;32;20471;-92
2022/11/14 15:00:19;;;;;;;27.13;13.55;;;;;;;13.68;59.93;100427.22;4364936;32;20148;-92
2022/11/14 15:02:45;;;;;;;27.30;14.15;;;;;;;13.78;59.94;100419.94;4378318;32;20416;-92
2022/11/14 15:05:10;;;;;;;30.77;15.15;;;;;;;13.64;59.93;100419.53;4378170;32;20137;-92
2022/11/14 15:07:37;;;;;;;25.20;13.82;;;;;;;13.50;59.93;100415.66;4370805;32;20116;-91
2022/11/14 15:10:03;;;;;;;24.20;13.43;;;;;;;13.45;59.92;100427.13;4365253;32;20114;-92
2022/11/14 15:12:29;;;;;;;31.80;14.68;;;;;;;13.51;59.93;100413.87;4375536;32;20087;-91
2022/11/14 15:14:55;;;;;;;26.30;15.10;;;;;;;13.46;59.92;100418.38;4375567;32;20138;-92
2022/11/14 15:17:21;;;;;;;26.08;15.45;;;;;;;13.35;59.92;100420.50;4362847;32;20123;-92
2022/11/14 15:19:46;;;;;;;26.05;14.15;;;;;;;13.36;59.92;100411.75;4363055;32;20126;-92
2022/11/14 15:22:14;;;;;;;28.42;15.73;;;;;;;13.25;59.91;100412.12;4377634;32;20197;-91
2022/11/14 15:24:40;;;;;;;27.73;15.55;;;;;;;13.21;59.91;100413.94;4387804;32;20113;-92
2022/11/14 15:27:13;;;;;;;29.80;14.98;;;;;;;13.03;59.89;100413.69;4362625;32;20412;-91
2022/11/14 15:29:50;;;;;;;29.98;15.25;;;;;;;12.91;59.90;100410.53;4375105;32;20700;-91
2022/11/14 15:32:20;;;;;;;27.85;15.30;;;;;;;13.00;59.90;100406.75;4365399;32;20091;-91
2022/11/14 15:35:17;;;;;;;28.50;15.25;;;;;;;12.87;59.89;100406.31;4377632;32;20122;-91
2022/11/14 15:38:18;;;;;;;34.72;18.33;;;;;;;12.90;59.89;100407.97;4390297;32;20111;-91
2022/11/14 15:40:45;;;;;;;54.08;23.48;;;;;;;12.76;59.89;100404.91;4374996;32;20111;-90
2022/11/14 15:43:39;;;;;;;43.53;20.33;;;;;;;12.62;59.88;100412.31;4374279;32;20107;-92
2022/11/14 15:46:22;;;;;;;33.90;18.45;;;;;;;12.54;59.87;100418.62;4390206;32;20533;-92
2022/11/14 15:48:51;;;;;;;31.77;18.52;;;;;;;12.33;59.85;100410.56;4373270;32;20095;-92
2022/11/14 15:51:16;;;;;;;34.67;18.40;;;;;;;12.39;59.86;100413.00;4376338;32;20127;-92
2022/11/14 15:53:44;;;;;;;33.70;17.35;;;;;;;12.23;59.86;100426.47;4374486;32;28905;-92
2022/11/14 15:56:12;;;;;;;33.40;18.27;;;;;;;12.14;59.85;100416.28;4364947;32;20086;-92
2022/11/14 15:58:38;;;;;;;34.92;19.00;;;;;;;11.81;59.83;100418.03;4375070;32;20487;-93
2022/11/14 16:01:03;;;;;;;35.78;20.52;;;;;;;11.75;59.82;100427.75;4377554;32;20098;-92
2022/11/14 16:03:29;;;;;;;40.33;21.50;;;;;;;11.67;59.82;100427.97;4352377;32;20090;-92
2022/11/14 16:05:54;;;;;;;35.95;20.25;;;;;;;11.62;59.82;100419.41;4376842;32;20185;-92
2022/11/14 16:08:20;;;;;;;34.97;19.67;;;;;;;11.68;59.83;100421.84;4364983;32;20136;-93
2022/11/14 16:10:45;;;;;;;34.25;17.65;;;;;;;11.61;59.83;100422.91;4362415;32;20163;-91
2022/11/14 16:13:10;;;;;;;30.15;17.27;;;;;;;11.70;59.83;100422.66;4364798;32;20125;-92
2022/11/14 16:15:36;;;;;;;28.80;16.65;;;;;;;11.81;59.83;100418.03;4377292;32;20126;-92
2022/11/14 16:18:03;;;;;;;32.47;17.37;;;;;;;11.61;59.82;100421.16;4377536;32;20153;-92
2022/11/14 16:20:29;;;;;;;32.55;17.87;;;;;;;11.43;59.81;100428.59;4365019;32;20203;-92
2022/11/14 16:22:55;;;;;;;33.17;18.65;;;;;;;11.58;59.82;100426.44;4380924;32;20110;-92
2022/11/14 16:25:25;;;;;;;36.33;19.25;;;;;;;11.38;59.81;100432.16;4388642;32;20099;-91
2022/11/14 16:27:50;;;;;;;37.38;19.65;;;;;;;11.35;59.81;100428.75;4357862;32;20134;-92
2022/11/14 16:30:17;;;;;;;42.28;22.25;;;;;;;11.08;59.80;100427.66;4365007;32;20111;-91
2022/11/14 16:32:48;;;;;;;38.90;21.02;;;;;;;11.23;59.80;100431.66;4376737;32;20106;-94
2022/11/14 16:35:14;;;;;;;40.75;20.73;;;;;;;11.10;59.80;100425.00;4372536;32;20098;-93
2022/11/14 16:37:40;;;;;;;44.60;24.70;;;;;;;11.03;59.79;100432.12;4363946;32;20083;-94
2022/11/14 16:40:06;;;;;;;44.15;22.98;;;;;;;10.90;59.78;100423.75;4352964;32;20150;-93
2022/11/14 16:42:32;;;;;;;48.72;25.33;;;;;;;11.03;59.79;100430.37;4363154;32;20091;-92
2022/11/14 16:45:00;;;;;;;44.70;24.10;;;;;;;10.86;59.78;100432.50;4375624;32;20393;-94
2022/11/14 16:47:26;;;;;;;43.85;23.45;;;;;;;10.84;59.79;100433.44;4378249;32;20780;-94
2022/11/14 16:49:52;;;;;;;39.38;23.38;;;;;;;10.66;59.77;100437.31;4354479;32;20107;-96
2022/11/14 16:52:18;;;;;;;45.92;24.17;;;;;;;10.71;59.77;100433.72;4358824;32;20149;-95
2022/11/14 16:54:47;;;;;;;47.42;25.95;;;;;;;10.59;59.76;100431.34;4367820;32;20225;-96
2022/11/14 16:57:16;;;;;;;54.75;29.05;;;;;;;10.61;59.76;100437.37;4378872;32;20114;-96
2022/11/14 16:59:44;;;;;;;58.78;30.08;;;;;;;10.54;59.76;100432.34;4384482;32;20172;-93
2022/11/14 17:02:14;;;;;;;58.87;29.95;;;;;;;10.44;59.76;100431.69;4353568;32;20106;-95
2022/11/14 17:04:43;;;;;;;58.33;29.35;;;;;;;10.50;59.77;100438.50;4375942;32;20166;-94
2022/11/14 17:07:12;;;;;;;52.72;28.45;;;;;;;10.36;59.76;100438.78;4379299;32;20110;-94
2022/11/14 17:09:38;;;;;;;49.80;28.00;;;;;;;10.39;59.76;100436.09;4364465;32;20111;-94
2022/11/14 17:12:03;;;;;;;54.42;25.27;;;;;;;10.32;59.76;100437.13;4378313;32;20148;-92
2022/11/14 17:14:42;;;;;;;51.45;26.25;;;;;;;10.28;59.75;100436.34;4378256;32;20103;-92
2022/11/14 17:17:07;;;;;;;50.42;25.88;;;;;;;10.11;59.74;100423.63;4353243;32;20099;-95
2022/11/14 17:19:33;;;;;;;53.35;26.12;;;;;;;10.51;59.76;100428.06;4377388;32;20174;-95
2022/11/14 17:21:58;;;;;;;50.97;24.27;;;;;;;10.43;59.76;100427.37;4350650;32;20525;-94
2022/11/14 17:24:24;;;;;;;48.22;24.65;;;;;;;10.33;59.76;100428.44;4365964;32;20471;-93
2022/11/14 17:26:49;;;;;;;50.03;24.87;;;;;;;10.27;59.75;100428.56;4365692;32;20171;-94